sensor_id;sensor_type;location;lat;lon;timestamp;P1;durP1;ratioP1;P2;durP2;ratioP2
23121;SDS011;11730;51.248;22.534;2023-02-28T00:01:31;8.30;;;5.82;;
23121;SDS011;11730;51.248;22.534;2023-02-28T00:03:58;8.63;;;6.15;;
23121;SDS011;11730;51.248;22.534;2023-02-28T00:06:26;11.02;;;6.30;;
23121;SDS011;11730;51.248;22.534;2023-02-28T00:08:53;9.00;;;6.72;;
23121;SDS011;11730;51.248;22.534;2023-02-28T00:11:20;9.38;;;6.40;;
23121;SDS011;11730;51.248;22.534;2023-02-28T00:13:48;9.32;;;7.03;;
23121;SDS011;11730;51.248;22.534;2023-02-28T00:16:19;9.13;;;5.97;;
23121;SDS011;11730;51.248;22.534;2023-02-28T00:18:48;11.73;;;6.80;;
23121;SDS011;11730;51.248;22.534;2023-02-28T00:21:16;9.48;;;6.20;;
23121;SDS011;11730;51.248;22.534;2023-02-28T00:23:44;11.70;;;6.72;;
23121;SDS011;11730;51.248;22.534;2023-02-28T00:26:11;10.95;;;6.65;;
23121;SDS011;11730;51.248;22.534;2023-02-28T00:28:38;8.73;;;7.00;;
23121;SDS011;11730;51.248;22.534;2023-02-28T00:31:05;11.68;;;6.78;;
23121;SDS011;11730;51.248;22.534;2023-02-28T00:33:32;9.50;;;6.53;;
23121;SDS011;11730;51.248;22.534;2023-02-28T00:36:01;10.32;;;6.93;;
23121;SDS011;11730;51.248;22.534;2023-02-28T00:38:30;10.30;;;6.80;;
23121;SDS011;11730;51.248;22.534;2023-02-28T00:40:57;10.05;;;6.60;;
23121;SDS011;11730;51.248;22.534;2023-02-28T00:43:25;10.55;;;6.80;;
23121;SDS011;11730;51.248;22.534;2023-02-28T00:45:51;8.57;;;6.32;;
23121;SDS011;11730;51.248;22.534;2023-02-28T00:48:19;10.10;;;6.60;;
23121;SDS011;11730;51.248;22.534;2023-02-28T00:50:48;10.48;;;6.30;;
23121;SDS011;11730;51.248;22.534;2023-02-28T00:53:16;8.65;;;5.97;;
23121;SDS011;11730;51.248;22.534;2023-02-28T00:55:43;14.10;;;6.70;;
23121;SDS011;11730;51.248;22.534;2023-02-28T00:58:10;9.68;;;6.63;;
23121;SDS011;11730;51.248;22.534;2023-02-28T01:00:37;9.63;;;6.78;;
23121;SDS011;11730;51.248;22.534;2023-02-28T01:03:04;9.27;;;6.15;;
23121;SDS011;11730;51.248;22.534;2023-02-28T01:05:31;9.73;;;6.70;;
23121;SDS011;11730;51.248;22.534;2023-02-28T01:07:58;10.57;;;6.68;;
23121;SDS011;11730;51.248;22.534;2023-02-28T01:10:26;11.45;;;6.57;;
23121;SDS011;11730;51.248;22.534;2023-02-28T01:12:57;11.05;;;6.50;;
23121;SDS011;11730;51.248;22.534;2023-02-28T01:15:24;7.97;;;6.22;;
23121;SDS011;11730;51.248;22.534;2023-02-28T01:17:51;10.50;;;6.55;;
23121;SDS011;11730;51.248;22.534;2023-02-28T01:20:18;8.73;;;6.75;;
23121;SDS011;11730;51.248;22.534;2023-02-28T01:22:45;15.13;;;6.55;;
23121;SDS011;11730;51.248;22.534;2023-02-28T01:25:13;10.95;;;6.40;;
23121;SDS011;11730;51.248;22.534;2023-02-28T01:27:40;10.48;;;6.00;;
23121;SDS011;11730;51.248;22.534;2023-02-28T01:30:07;12.27;;;6.80;;
23121;SDS011;11730;51.248;22.534;2023-02-28T01:32:35;11.98;;;6.47;;
23121;SDS011;11730;51.248;22.534;2023-02-28T01:35:03;10.95;;;6.93;;
23121;SDS011;11730;51.248;22.534;2023-02-28T01:37:30;10.73;;;6.25;;
23121;SDS011;11730;51.248;22.534;2023-02-28T01:39:57;10.32;;;6.60;;
23121;SDS011;11730;51.248;22.534;2023-02-28T01:42:24;11.02;;;6.25;;
23121;SDS011;11730;51.248;22.534;2023-02-28T01:44:56;10.85;;;7.10;;
23121;SDS011;11730;51.248;22.534;2023-02-28T01:47:36;9.40;;;6.57;;
23121;SDS011;11730;51.248;22.534;2023-02-28T01:50:07;11.65;;;7.35;;
23121;SDS011;11730;51.248;22.534;2023-02-28T01:52:39;13.55;;;7.18;;
23121;SDS011;11730;51.248;22.534;2023-02-28T01:55:08;11.02;;;6.63;;
23121;SDS011;11730;51.248;22.534;2023-02-28T01:57:40;12.18;;;7.28;;
23121;SDS011;11730;51.248;22.534;2023-02-28T02:00:17;11.75;;;7.80;;
23121;SDS011;11730;51.248;22.534;2023-02-28T02:02:47;16.35;;;8.52;;
23121;SDS011;11730;51.248;22.534;2023-02-28T02:05:18;16.67;;;9.10;;
23121;SDS011;11730;51.248;22.534;2023-02-28T02:07:48;22.63;;;10.60;;
23121;SDS011;11730;51.248;22.534;2023-02-28T02:18:34;29.85;;;13.82;;
23121;SDS011;11730;51.248;22.534;2023-02-28T02:32:06;29.85;;;12.57;;
23121;SDS011;11730;51.248;22.534;2023-02-28T02:37:56;28.73;;;12.70;;
23121;SDS011;11730;51.248;22.534;2023-02-28T02:40:26;22.92;;;11.43;;
23121;SDS011;11730;51.248;22.534;2023-02-28T02:43:09;29.80;;;13.10;;
23121;SDS011;11730;51.248;22.534;2023-02-28T02:46:06;28.55;;;12.20;;
23121;SDS011;11730;51.248;22.534;2023-02-28T02:48:41;27.95;;;12.23;;
23121;SDS011;11730;51.248;22.534;2023-02-28T02:51:13;22.60;;;11.25;;
23121;SDS011;11730;51.248;22.534;2023-02-28T02:53:45;22.33;;;11.02;;
23121;SDS011;11730;51.248;22.534;2023-02-28T02:56:19;22.80;;;10.57;;
23121;SDS011;11730;51.248;22.534;2023-02-28T02:58:50;22.55;;;10.55;;
23121;SDS011;11730;51.248;22.534;2023-02-28T03:01:20;26.70;;;11.15;;
23121;SDS011;11730;51.248;22.534;2023-02-28T03:04:02;25.98;;;10.45;;
23121;SDS011;11730;51.248;22.534;2023-02-28T03:06:33;26.70;;;11.10;;
23121;SDS011;11730;51.248;22.534;2023-02-28T03:09:01;25.95;;;11.95;;
23121;SDS011;11730;51.248;22.534;2023-02-28T03:11:28;21.98;;;11.15;;
23121;SDS011;11730;51.248;22.534;2023-02-28T03:16:40;21.98;;;10.80;;
23121;SDS011;11730;51.248;22.534;2023-02-28T03:21:42;17.95;;;10.40;;
23121;SDS011;11730;51.248;22.534;2023-02-28T03:27:00;19.92;;;10.23;;
23121;SDS011;11730;51.248;22.534;2023-02-28T03:29:34;19.48;;;10.80;;
23121;SDS011;11730;51.248;22.534;2023-02-28T03:34:33;18.33;;;9.82;;
23121;SDS011;11730;51.248;22.534;2023-02-28T03:37:05;18.33;;;9.82;;
23121;SDS011;11730;51.248;22.534;2023-02-28T03:42:39;17.23;;;9.57;;
23121;SDS011;11730;51.248;22.534;2023-02-28T03:45:14;21.95;;;10.38;;
23121;SDS011;11730;51.248;22.534;2023-02-28T03:47:50;15.68;;;9.55;;
23121;SDS011;11730;51.248;22.534;2023-02-28T03:50:29;20.65;;;9.80;;
23121;SDS011;11730;51.248;22.534;2023-02-28T03:53:02;19.10;;;9.23;;
23121;SDS011;11730;51.248;22.534;2023-02-28T03:55:49;17.90;;;9.25;;
23121;SDS011;11730;51.248;22.534;2023-02-28T03:58:31;16.10;;;9.15;;
23121;SDS011;11730;51.248;22.534;2023-02-28T04:01:09;18.80;;;9.13;;
23121;SDS011;11730;51.248;22.534;2023-02-28T04:03:41;19.42;;;9.45;;
23121;SDS011;11730;51.248;22.534;2023-02-28T04:06:10;16.13;;;9.48;;
23121;SDS011;11730;51.248;22.534;2023-02-28T04:08:47;15.38;;;9.05;;
23121;SDS011;11730;51.248;22.534;2023-02-28T04:13:44;16.05;;;9.30;;
23121;SDS011;11730;51.248;22.534;2023-02-28T04:16:12;20.13;;;9.60;;
23121;SDS011;11730;51.248;22.534;2023-02-28T04:18:57;19.30;;;9.60;;
23121;SDS011;11730;51.248;22.534;2023-02-28T04:21:29;21.52;;;10.20;;
23121;SDS011;11730;51.248;22.534;2023-02-28T04:24:01;20.10;;;10.55;;
23121;SDS011;11730;51.248;22.534;2023-02-28T04:26:32;31.70;;;13.85;;
23121;SDS011;11730;51.248;22.534;2023-02-28T04:29:03;36.55;;;16.25;;
23121;SDS011;11730;51.248;22.534;2023-02-28T04:31:31;31.55;;;15.20;;
23121;SDS011;11730;51.248;22.534;2023-02-28T04:33:59;28.20;;;12.40;;
23121;SDS011;11730;51.248;22.534;2023-02-28T04:36:26;22.50;;;11.70;;
23121;SDS011;11730;51.248;22.534;2023-02-28T04:38:54;22.67;;;12.32;;
23121;SDS011;11730;51.248;22.534;2023-02-28T04:41:21;20.27;;;10.77;;
23121;SDS011;11730;51.248;22.534;2023-02-28T04:43:50;19.15;;;10.65;;
23121;SDS011;11730;51.248;22.534;2023-02-28T04:46:18;19.23;;;11.32;;
23121;SDS011;11730;51.248;22.534;2023-02-28T04:48:47;22.38;;;10.98;;
23121;SDS011;11730;51.248;22.534;2023-02-28T04:51:15;19.45;;;10.60;;
23121;SDS011;11730;51.248;22.534;2023-02-28T04:53:45;22.88;;;12.63;;
23121;SDS011;11730;51.248;22.534;2023-02-28T04:56:13;25.35;;;13.15;;
23121;SDS011;11730;51.248;22.534;2023-02-28T04:58:42;23.58;;;13.10;;
23121;SDS011;11730;51.248;22.534;2023-02-28T05:01:21;21.95;;;11.75;;
23121;SDS011;11730;51.248;22.534;2023-02-28T05:03:48;20.38;;;12.20;;
23121;SDS011;11730;51.248;22.534;2023-02-28T05:06:16;27.63;;;13.10;;
23121;SDS011;11730;51.248;22.534;2023-02-28T05:08:43;22.30;;;11.77;;
23121;SDS011;11730;51.248;22.534;2023-02-28T05:11:15;24.27;;;12.55;;
23121;SDS011;11730;51.248;22.534;2023-02-28T05:13:44;19.40;;;11.40;;
23121;SDS011;11730;51.248;22.534;2023-02-28T05:16:11;24.42;;;11.77;;
23121;SDS011;11730;51.248;22.534;2023-02-28T05:18:39;24.92;;;11.73;;
23121;SDS011;11730;51.248;22.534;2023-02-28T05:21:12;24.42;;;11.80;;
23121;SDS011;11730;51.248;22.534;2023-02-28T05:23:50;19.35;;;10.90;;
23121;SDS011;11730;51.248;22.534;2023-02-28T05:26:18;20.48;;;11.88;;
23121;SDS011;11730;51.248;22.534;2023-02-28T05:28:45;20.48;;;11.32;;
23121;SDS011;11730;51.248;22.534;2023-02-28T05:31:12;29.63;;;12.50;;
23121;SDS011;11730;51.248;22.534;2023-02-28T05:33:39;22.58;;;12.57;;
23121;SDS011;11730;51.248;22.534;2023-02-28T05:36:07;23.38;;;13.00;;
23121;SDS011;11730;51.248;22.534;2023-02-28T05:38:34;22.52;;;12.10;;
23121;SDS011;11730;51.248;22.534;2023-02-28T05:41:10;20.70;;;12.43;;
23121;SDS011;11730;51.248;22.534;2023-02-28T05:43:37;26.27;;;11.88;;
23121;SDS011;11730;51.248;22.534;2023-02-28T05:46:08;21.45;;;12.18;;
23121;SDS011;11730;51.248;22.534;2023-02-28T05:48:37;21.97;;;11.63;;
23121;SDS011;11730;51.248;22.534;2023-02-28T05:51:05;21.95;;;11.57;;
23121;SDS011;11730;51.248;22.534;2023-02-28T05:53:33;22.75;;;12.38;;
23121;SDS011;11730;51.248;22.534;2023-02-28T05:56:01;28.02;;;12.38;;
23121;SDS011;11730;51.248;22.534;2023-02-28T05:58:29;23.00;;;11.70;;
23121;SDS011;11730;51.248;22.534;2023-02-28T06:00:58;21.48;;;12.50;;
23121;SDS011;11730;51.248;22.534;2023-02-28T06:03:26;20.35;;;10.60;;
23121;SDS011;11730;51.248;22.534;2023-02-28T06:05:53;16.90;;;10.65;;
23121;SDS011;11730;51.248;22.534;2023-02-28T06:08:20;18.05;;;10.80;;
23121;SDS011;11730;51.248;22.534;2023-02-28T06:10:47;36.97;;;19.35;;
23121;SDS011;11730;51.248;22.534;2023-02-28T06:13:14;22.52;;;13.07;;
23121;SDS011;11730;51.248;22.534;2023-02-28T06:15:41;23.38;;;12.02;;
23121;SDS011;11730;51.248;22.534;2023-02-28T06:18:08;22.85;;;11.02;;
23121;SDS011;11730;51.248;22.534;2023-02-28T06:20:35;21.67;;;10.07;;
23121;SDS011;11730;51.248;22.534;2023-02-28T06:23:02;18.67;;;10.85;;
23121;SDS011;11730;51.248;22.534;2023-02-28T06:25:29;23.67;;;11.02;;
23121;SDS011;11730;51.248;22.534;2023-02-28T06:27:56;17.15;;;10.82;;
23121;SDS011;11730;51.248;22.534;2023-02-28T06:30:23;26.42;;;11.82;;
23121;SDS011;11730;51.248;22.534;2023-02-28T06:32:53;23.00;;;12.23;;
23121;SDS011;11730;51.248;22.534;2023-02-28T06:35:21;16.52;;;11.68;;
23121;SDS011;11730;51.248;22.534;2023-02-28T06:37:48;20.75;;;11.32;;
23121;SDS011;11730;51.248;22.534;2023-02-28T06:40:15;22.88;;;11.57;;
23121;SDS011;11730;51.248;22.534;2023-02-28T06:42:42;19.98;;;10.68;;
23121;SDS011;11730;51.248;22.534;2023-02-28T06:45:10;24.27;;;11.55;;
23121;SDS011;11730;51.248;22.534;2023-02-28T06:47:38;27.58;;;12.55;;
23121;SDS011;11730;51.248;22.534;2023-02-28T06:50:08;22.23;;;11.65;;
23121;SDS011;11730;51.248;22.534;2023-02-28T06:52:37;21.40;;;10.60;;
23121;SDS011;11730;51.248;22.534;2023-02-28T06:55:05;23.60;;;10.30;;
23121;SDS011;11730;51.248;22.534;2023-02-28T06:57:34;22.25;;;10.48;;
23121;SDS011;11730;51.248;22.534;2023-02-28T07:00:05;25.17;;;12.10;;
23121;SDS011;11730;51.248;22.534;2023-02-28T07:02:35;25.05;;;10.55;;
23121;SDS011;11730;51.248;22.534;2023-02-28T07:05:04;20.55;;;9.82;;
23121;SDS011;11730;51.248;22.534;2023-02-28T07:07:32;22.80;;;10.45;;
23121;SDS011;11730;51.248;22.534;2023-02-28T07:09:59;22.77;;;10.50;;
23121;SDS011;11730;51.248;22.534;2023-02-28T07:12:27;23.92;;;13.27;;
23121;SDS011;11730;51.248;22.534;2023-02-28T07:14:53;16.30;;;8.90;;
23121;SDS011;11730;51.248;22.534;2023-02-28T07:17:22;16.85;;;7.78;;
23121;SDS011;11730;51.248;22.534;2023-02-28T07:19:49;16.17;;;9.20;;
23121;SDS011;11730;51.248;22.534;2023-02-28T07:22:16;15.82;;;7.70;;
23121;SDS011;11730;51.248;22.534;2023-02-28T07:24:42;20.40;;;9.30;;
23121;SDS011;11730;51.248;22.534;2023-02-28T07:27:09;17.60;;;9.25;;
23121;SDS011;11730;51.248;22.534;2023-02-28T07:29:36;14.98;;;8.52;;
23121;SDS011;11730;51.248;22.534;2023-02-28T07:32:04;14.18;;;8.55;;
23121;SDS011;11730;51.248;22.534;2023-02-28T07:34:31;15.88;;;8.60;;
23121;SDS011;11730;51.248;22.534;2023-02-28T07:36:58;14.38;;;8.13;;
23121;SDS011;11730;51.248;22.534;2023-02-28T07:39:26;17.33;;;8.52;;
23121;SDS011;11730;51.248;22.534;2023-02-28T07:41:53;22.13;;;11.15;;
23121;SDS011;11730;51.248;22.534;2023-02-28T07:44:19;21.13;;;13.23;;
23121;SDS011;11730;51.248;22.534;2023-02-28T07:46:47;18.65;;;11.00;;
23121;SDS011;11730;51.248;22.534;2023-02-28T07:49:14;70.60;;;42.78;;
23121;SDS011;11730;51.248;22.534;2023-02-28T07:51:41;19.48;;;10.95;;
23121;SDS011;11730;51.248;22.534;2023-02-28T07:54:08;14.57;;;8.70;;
23121;SDS011;11730;51.248;22.534;2023-02-28T07:56:35;12.07;;;7.95;;
23121;SDS011;11730;51.248;22.534;2023-02-28T07:59:02;16.42;;;9.10;;
23121;SDS011;11730;51.248;22.534;2023-02-28T08:01:29;15.38;;;8.23;;
23121;SDS011;11730;51.248;22.534;2023-02-28T08:03:56;11.70;;;7.60;;
23121;SDS011;11730;51.248;22.534;2023-02-28T08:06:23;13.30;;;7.40;;
23121;SDS011;11730;51.248;22.534;2023-02-28T08:08:52;16.20;;;7.38;;
23121;SDS011;11730;51.248;22.534;2023-02-28T08:11:19;13.70;;;7.72;;
23121;SDS011;11730;51.248;22.534;2023-02-28T08:13:46;14.45;;;8.07;;
23121;SDS011;11730;51.248;22.534;2023-02-28T08:16:13;14.80;;;9.07;;
23121;SDS011;11730;51.248;22.534;2023-02-28T08:18:44;19.08;;;9.07;;
23121;SDS011;11730;51.248;22.534;2023-02-28T08:21:11;16.75;;;9.05;;
23121;SDS011;11730;51.248;22.534;2023-02-28T08:23:38;16.67;;;9.55;;
23121;SDS011;11730;51.248;22.534;2023-02-28T08:26:05;15.43;;;8.60;;
23121;SDS011;11730;51.248;22.534;2023-02-28T08:28:32;19.88;;;9.02;;
23121;SDS011;11730;51.248;22.534;2023-02-28T08:31:00;18.48;;;8.70;;
23121;SDS011;11730;51.248;22.534;2023-02-28T08:33:27;17.30;;;9.05;;
23121;SDS011;11730;51.248;22.534;2023-02-28T08:35:54;16.65;;;8.88;;
23121;SDS011;11730;51.248;22.534;2023-02-28T08:38:23;18.98;;;9.23;;
23121;SDS011;11730;51.248;22.534;2023-02-28T08:40:50;16.88;;;9.05;;
23121;SDS011;11730;51.248;22.534;2023-02-28T08:43:25;15.25;;;8.38;;
23121;SDS011;11730;51.248;22.534;2023-02-28T08:45:52;14.82;;;8.55;;
23121;SDS011;11730;51.248;22.534;2023-02-28T08:48:20;15.02;;;8.35;;
23121;SDS011;11730;51.248;22.534;2023-02-28T08:50:57;15.57;;;8.43;;
23121;SDS011;11730;51.248;22.534;2023-02-28T08:53:33;39.20;;;25.65;;
23121;SDS011;11730;51.248;22.534;2023-02-28T08:56:01;9.50;;;6.75;;
23121;SDS011;11730;51.248;22.534;2023-02-28T08:58:32;15.43;;;8.98;;
23121;SDS011;11730;51.248;22.534;2023-02-28T09:01:00;14.00;;;8.13;;
23121;SDS011;11730;51.248;22.534;2023-02-28T09:03:33;14.15;;;9.07;;
23121;SDS011;11730;51.248;22.534;2023-02-28T09:06:00;17.58;;;8.68;;
23121;SDS011;11730;51.248;22.534;2023-02-28T09:08:28;15.18;;;8.30;;
23121;SDS011;11730;51.248;22.534;2023-02-28T09:10:57;14.23;;;8.30;;
23121;SDS011;11730;51.248;22.534;2023-02-28T09:13:27;12.98;;;8.77;;
23121;SDS011;11730;51.248;22.534;2023-02-28T09:15:55;16.55;;;8.65;;
23121;SDS011;11730;51.248;22.534;2023-02-28T09:18:27;17.15;;;8.32;;
23121;SDS011;11730;51.248;22.534;2023-02-28T09:20:54;39.03;;;20.50;;
23121;SDS011;11730;51.248;22.534;2023-02-28T09:23:21;14.32;;;9.50;;
23121;SDS011;11730;51.248;22.534;2023-02-28T09:25:53;13.07;;;9.20;;
23121;SDS011;11730;51.248;22.534;2023-02-28T09:28:21;48.33;;;28.75;;
23121;SDS011;11730;51.248;22.534;2023-02-28T09:30:50;13.38;;;8.25;;
23121;SDS011;11730;51.248;22.534;2023-02-28T09:33:19;14.70;;;8.30;;
23121;SDS011;11730;51.248;22.534;2023-02-28T09:35:49;15.82;;;8.57;;
23121;SDS011;11730;51.248;22.534;2023-02-28T09:38:17;16.35;;;9.05;;
23121;SDS011;11730;51.248;22.534;2023-02-28T09:40:51;14.40;;;9.25;;
23121;SDS011;11730;51.248;22.534;2023-02-28T09:43:22;14.90;;;8.88;;
23121;SDS011;11730;51.248;22.534;2023-02-28T09:45:56;17.85;;;9.30;;
23121;SDS011;11730;51.248;22.534;2023-02-28T09:48:32;13.10;;;9.02;;
23121;SDS011;11730;51.248;22.534;2023-02-28T09:51:11;36.08;;;10.30;;
23121;SDS011;11730;51.248;22.534;2023-02-28T09:53:49;14.45;;;8.82;;
23121;SDS011;11730;51.248;22.534;2023-02-28T09:56:39;12.73;;;8.77;;
23121;SDS011;11730;51.248;22.534;2023-02-28T09:59:14;13.52;;;8.48;;
23121;SDS011;11730;51.248;22.534;2023-02-28T10:07:06;14.80;;;8.93;;
23121;SDS011;11730;51.248;22.534;2023-02-28T10:09:53;15.38;;;9.30;;
23121;SDS011;11730;51.248;22.534;2023-02-28T10:12:22;20.88;;;8.98;;
23121;SDS011;11730;51.248;22.534;2023-02-28T10:14:51;18.13;;;11.45;;
23121;SDS011;11730;51.248;22.534;2023-02-28T10:17:24;14.60;;;9.23;;
23121;SDS011;11730;51.248;22.534;2023-02-28T10:25:34;16.02;;;8.52;;
23121;SDS011;11730;51.248;22.534;2023-02-28T10:28:10;14.20;;;8.70;;
23121;SDS011;11730;51.248;22.534;2023-02-28T10:30:43;14.23;;;9.05;;
23121;SDS011;11730;51.248;22.534;2023-02-28T10:33:24;15.95;;;8.50;;
23121;SDS011;11730;51.248;22.534;2023-02-28T10:35:55;14.98;;;8.40;;
23121;SDS011;11730;51.248;22.534;2023-02-28T10:38:23;17.00;;;8.20;;
23121;SDS011;11730;51.248;22.534;2023-02-28T10:40:51;13.13;;;8.80;;
23121;SDS011;11730;51.248;22.534;2023-02-28T10:43:34;12.65;;;8.85;;
23121;SDS011;11730;51.248;22.534;2023-02-28T10:46:02;22.42;;;9.30;;
23121;SDS011;11730;51.248;22.534;2023-02-28T10:48:37;14.70;;;9.25;;
23121;SDS011;11730;51.248;22.534;2023-02-28T10:51:15;13.27;;;9.02;;
23121;SDS011;11730;51.248;22.534;2023-02-28T10:53:48;18.35;;;8.20;;
23121;SDS011;11730;51.248;22.534;2023-02-28T10:56:31;20.33;;;9.15;;
23121;SDS011;11730;51.248;22.534;2023-02-28T10:59:03;15.70;;;10.00;;
23121;SDS011;11730;51.248;22.534;2023-02-28T11:01:54;13.07;;;8.68;;
23121;SDS011;11730;51.248;22.534;2023-02-28T11:06:59;11.70;;;8.82;;
23121;SDS011;11730;51.248;22.534;2023-02-28T11:09:46;16.90;;;9.90;;
23121;SDS011;11730;51.248;22.534;2023-02-28T11:14:54;15.75;;;9.60;;
23121;SDS011;11730;51.248;22.534;2023-02-28T11:17:25;50.17;;;31.20;;
23121;SDS011;11730;51.248;22.534;2023-02-28T11:19:57;19.30;;;10.68;;
23121;SDS011;11730;51.248;22.534;2023-02-28T11:22:33;15.02;;;9.90;;
23121;SDS011;11730;51.248;22.534;2023-02-28T11:25:48;14.95;;;9.98;;
23121;SDS011;11730;51.248;22.534;2023-02-28T11:28:05;13.77;;;9.30;;
23121;SDS011;11730;51.248;22.534;2023-02-28T11:36:24;16.35;;;9.73;;
23121;SDS011;11730;51.248;22.534;2023-02-28T11:38:56;21.63;;;9.63;;
23121;SDS011;11730;51.248;22.534;2023-02-28T11:42:33;14.20;;;8.93;;
23121;SDS011;11730;51.248;22.534;2023-02-28T12:03:31;16.15;;;9.35;;
23121;SDS011;11730;51.248;22.534;2023-02-28T12:06:27;13.27;;;9.27;;
23121;SDS011;11730;51.248;22.534;2023-02-28T12:09:23;16.70;;;10.35;;
23121;SDS011;11730;51.248;22.534;2023-02-28T12:14:57;14.85;;;8.57;;
23121;SDS011;11730;51.248;22.534;2023-02-28T12:20:33;14.57;;;9.07;;
23121;SDS011;11730;51.248;22.534;2023-02-28T12:23:19;13.65;;;9.93;;
23121;SDS011;11730;51.248;22.534;2023-02-28T12:26:13;17.92;;;10.50;;
23121;SDS011;11730;51.248;22.534;2023-02-28T12:29:02;14.73;;;9.82;;
23121;SDS011;11730;51.248;22.534;2023-02-28T12:31:38;12.90;;;9.82;;
23121;SDS011;11730;51.248;22.534;2023-02-28T12:34:16;15.10;;;11.00;;
23121;SDS011;11730;51.248;22.534;2023-02-28T12:36:49;14.52;;;10.25;;
23121;SDS011;11730;51.248;22.534;2023-02-28T12:39:27;13.85;;;10.38;;
23121;SDS011;11730;51.248;22.534;2023-02-28T12:44:48;14.15;;;9.52;;
23121;SDS011;11730;51.248;22.534;2023-02-28T12:47:18;14.45;;;9.23;;
23121;SDS011;11730;51.248;22.534;2023-02-28T12:49:46;13.82;;;9.70;;
23121;SDS011;11730;51.248;22.534;2023-02-28T12:52:40;12.90;;;9.13;;
23121;SDS011;11730;51.248;22.534;2023-02-28T12:55:31;14.32;;;9.85;;
23121;SDS011;11730;51.248;22.534;2023-02-28T12:58:28;15.60;;;9.43;;
23121;SDS011;11730;51.248;22.534;2023-02-28T13:07:09;14.73;;;9.48;;
23121;SDS011;11730;51.248;22.534;2023-02-28T13:10:02;17.88;;;10.15;;
23121;SDS011;11730;51.248;22.534;2023-02-28T13:12:33;18.25;;;12.00;;
23121;SDS011;11730;51.248;22.534;2023-02-28T13:15:08;14.32;;;9.45;;
23121;SDS011;11730;51.248;22.534;2023-02-28T13:17:51;13.50;;;9.77;;
23121;SDS011;11730;51.248;22.534;2023-02-28T13:20:37;14.38;;;9.02;;
23121;SDS011;11730;51.248;22.534;2023-02-28T13:26:18;25.55;;;16.88;;
23121;SDS011;11730;51.248;22.534;2023-02-28T13:31:21;12.65;;;9.27;;
23121;SDS011;11730;51.248;22.534;2023-02-28T13:38:46;25.20;;;11.00;;
23121;SDS011;11730;51.248;22.534;2023-02-28T13:41:42;18.40;;;10.63;;
23121;SDS011;11730;51.248;22.534;2023-02-28T13:54:34;17.00;;;9.55;;
23121;SDS011;11730;51.248;22.534;2023-02-28T13:59:42;15.50;;;9.25;;
23121;SDS011;11730;51.248;22.534;2023-02-28T14:05:09;14.48;;;10.30;;
23121;SDS011;11730;51.248;22.534;2023-02-28T14:07:52;16.25;;;11.00;;
23121;SDS011;11730;51.248;22.534;2023-02-28T14:10:28;15.23;;;10.60;;
23121;SDS011;11730;51.248;22.534;2023-02-28T14:13:00;18.00;;;10.77;;
23121;SDS011;11730;51.248;22.534;2023-02-28T14:15:38;17.50;;;10.48;;
23121;SDS011;11730;51.248;22.534;2023-02-28T14:18:28;17.30;;;9.27;;
23121;SDS011;11730;51.248;22.534;2023-02-28T14:21:11;17.98;;;10.30;;
23121;SDS011;11730;51.248;22.534;2023-02-28T14:37:09;17.23;;;10.43;;
23121;SDS011;11730;51.248;22.534;2023-02-28T14:39:42;15.82;;;10.35;;
23121;SDS011;11730;51.248;22.534;2023-02-28T14:42:30;18.00;;;10.68;;
23121;SDS011;11730;51.248;22.534;2023-02-28T14:45:02;17.80;;;10.23;;
23121;SDS011;11730;51.248;22.534;2023-02-28T14:47:32;20.40;;;11.43;;
23121;SDS011;11730;51.248;22.534;2023-02-28T14:50:02;14.88;;;10.23;;
23121;SDS011;11730;51.248;22.534;2023-02-28T14:52:31;16.63;;;10.48;;
23121;SDS011;11730;51.248;22.534;2023-02-28T14:55:06;16.92;;;10.93;;
23121;SDS011;11730;51.248;22.534;2023-02-28T14:57:43;16.55;;;10.60;;
23121;SDS011;11730;51.248;22.534;2023-02-28T15:00:26;16.27;;;10.68;;
23121;SDS011;11730;51.248;22.534;2023-02-28T15:02:54;17.27;;;11.68;;
23121;SDS011;11730;51.248;22.534;2023-02-28T15:08:03;20.83;;;11.80;;
23121;SDS011;11730;51.248;22.534;2023-02-28T15:10:38;19.40;;;11.73;;
23121;SDS011;11730;51.248;22.534;2023-02-28T15:13:11;18.27;;;11.32;;
23121;SDS011;11730;51.248;22.534;2023-02-28T15:21:02;22.73;;;11.80;;
23121;SDS011;11730;51.248;22.534;2023-02-28T15:23:35;20.73;;;12.40;;
23121;SDS011;11730;51.248;22.534;2023-02-28T15:26:03;19.30;;;11.52;;
23121;SDS011;11730;51.248;22.534;2023-02-28T15:28:31;21.33;;;11.48;;
23121;SDS011;11730;51.248;22.534;2023-02-28T15:30:59;22.38;;;12.32;;
23121;SDS011;11730;51.248;22.534;2023-02-28T15:33:32;19.58;;;12.98;;
23121;SDS011;11730;51.248;22.534;2023-02-28T15:36:05;17.05;;;11.68;;
23121;SDS011;11730;51.248;22.534;2023-02-28T15:38:38;21.55;;;12.55;;
23121;SDS011;11730;51.248;22.534;2023-02-28T15:41:16;21.85;;;13.52;;
23121;SDS011;11730;51.248;22.534;2023-02-28T15:46:53;21.63;;;13.73;;
23121;SDS011;11730;51.248;22.534;2023-02-28T15:49:24;26.83;;;14.25;;
23121;SDS011;11730;51.248;22.534;2023-02-28T15:51:52;25.95;;;16.33;;
23121;SDS011;11730;51.248;22.534;2023-02-28T15:54:27;28.70;;;15.90;;
23121;SDS011;11730;51.248;22.534;2023-02-28T15:57:03;38.13;;;17.50;;
23121;SDS011;11730;51.248;22.534;2023-02-28T15:59:35;32.88;;;17.20;;
23121;SDS011;11730;51.248;22.534;2023-02-28T16:02:12;30.70;;;15.95;;
23121;SDS011;11730;51.248;22.534;2023-02-28T16:07:26;36.38;;;15.27;;
23121;SDS011;11730;51.248;22.534;2023-02-28T16:09:54;25.17;;;14.48;;
23121;SDS011;11730;51.248;22.534;2023-02-28T16:12:23;36.97;;;15.98;;
23121;SDS011;11730;51.248;22.534;2023-02-28T16:14:59;27.83;;;14.88;;
23121;SDS011;11730;51.248;22.534;2023-02-28T16:17:34;29.10;;;18.38;;
23121;SDS011;11730;51.248;22.534;2023-02-28T16:22:41;34.22;;;16.98;;
23121;SDS011;11730;51.248;22.534;2023-02-28T16:25:12;28.38;;;16.50;;
23121;SDS011;11730;51.248;22.534;2023-02-28T16:27:40;36.38;;;19.15;;
23121;SDS011;11730;51.248;22.534;2023-02-28T16:30:14;32.67;;;18.90;;
23121;SDS011;11730;51.248;22.534;2023-02-28T16:32:44;34.50;;;18.70;;
23121;SDS011;11730;51.248;22.534;2023-02-28T16:35:11;30.00;;;17.25;;
23121;SDS011;11730;51.248;22.534;2023-02-28T16:37:40;33.78;;;18.67;;
23121;SDS011;11730;51.248;22.534;2023-02-28T16:40:12;34.22;;;19.50;;
23121;SDS011;11730;51.248;22.534;2023-02-28T16:42:41;42.80;;;20.70;;
23121;SDS011;11730;51.248;22.534;2023-02-28T16:45:15;38.47;;;20.17;;
23121;SDS011;11730;51.248;22.534;2023-02-28T16:47:48;42.17;;;21.17;;
23121;SDS011;11730;51.248;22.534;2023-02-28T16:50:16;49.85;;;21.83;;
23121;SDS011;11730;51.248;22.534;2023-02-28T16:52:47;40.63;;;22.20;;
23121;SDS011;11730;51.248;22.534;2023-02-28T16:55:15;41.58;;;21.52;;
23121;SDS011;11730;51.248;22.534;2023-02-28T16:57:42;43.33;;;22.67;;
23121;SDS011;11730;51.248;22.534;2023-02-28T17:00:11;41.15;;;21.92;;
23121;SDS011;11730;51.248;22.534;2023-02-28T17:02:40;44.00;;;23.40;;
23121;SDS011;11730;51.248;22.534;2023-02-28T17:05:08;42.03;;;23.23;;
23121;SDS011;11730;51.248;22.534;2023-02-28T17:07:39;42.67;;;23.83;;
23121;SDS011;11730;51.248;22.534;2023-02-28T17:10:25;47.30;;;24.10;;
23121;SDS011;11730;51.248;22.534;2023-02-28T17:12:52;55.72;;;25.15;;